sensor_id;sensor_type;location;lat;lon;timestamp;temperature;humidity
79049;DHT22;68680;50.764;6.120;2023-09-30T00:00:11;13.40;99.90
79049;DHT22;68680;50.764;6.120;2023-09-30T00:02:37;13.40;99.90
79049;DHT22;68680;50.764;6.120;2023-09-30T00:05:03;13.50;99.90
79049;DHT22;68680;50.764;6.120;2023-09-30T00:07:29;13.50;99.90
79049;DHT22;68680;50.764;6.120;2023-09-30T00:09:55;13.50;99.90
79049;DHT22;68680;50.764;6.120;2023-09-30T00:12:22;13.50;99.90
79049;DHT22;68680;50.764;6.120;2023-09-30T00:14:48;13.50;99.90
79049;DHT22;68680;50.764;6.120;2023-09-30T00:17:14;13.50;99.90
79049;DHT22;68680;50.764;6.120;2023-09-30T00:19:39;13.40;99.90
79049;DHT22;68680;50.764;6.120;2023-09-30T00:22:05;13.40;99.90
79049;DHT22;68680;50.764;6.120;2023-09-30T00:24:31;13.40;99.90
79049;DHT22;68680;50.764;6.120;2023-09-30T00:26:57;13.30;99.90
79049;DHT22;68680;50.764;6.120;2023-09-30T00:29:24;13.30;99.90
79049;DHT22;68680;50.764;6.120;2023-09-30T00:31:50;13.30;99.90
79049;DHT22;68680;50.764;6.120;2023-09-30T00:34:16;13.30;99.90
79049;DHT22;68680;50.764;6.120;2023-09-30T00:36:41;13.30;99.90
79049;DHT22;68680;50.764;6.120;2023-09-30T00:39:07;13.30;99.90
79049;DHT22;68680;50.764;6.120;2023-09-30T00:41:33;13.20;99.90
79049;DHT22;68680;50.764;6.120;2023-09-30T00:43:59;13.20;99.90
79049;DHT22;68680;50.764;6.120;2023-09-30T00:46:29;13.20;99.90
79049;DHT22;68680;50.764;6.120;2023-09-30T00:48:58;13.10;99.90
79049;DHT22;68680;50.764;6.120;2023-09-30T00:51:25;13.10;99.90
79049;DHT22;68680;50.764;6.120;2023-09-30T00:53:53;13.20;99.90
79049;DHT22;68680;50.764;6.120;2023-09-30T00:56:24;13.10;99.90
79049;DHT22;68680;50.764;6.120;2023-09-30T00:58:52;13.10;99.90
79049;DHT22;68680;50.764;6.120;2023-09-30T01:01:18;13.00;99.90
79049;DHT22;68680;50.764;6.120;2023-09-30T01:03:47;13.00;99.90
79049;DHT22;68680;50.764;6.120;2023-09-30T01:06:13;13.00;99.90
79049;DHT22;68680;50.764;6.120;2023-09-30T01:08:39;13.00;99.90
79049;DHT22;68680;50.764;6.120;2023-09-30T01:11:06;13.00;99.90
79049;DHT22;68680;50.764;6.120;2023-09-30T01:13:32;13.00;99.90
79049;DHT22;68680;50.764;6.120;2023-09-30T01:15:58;13.10;99.90
79049;DHT22;68680;50.764;6.120;2023-09-30T01:18:28;13.00;99.90
79049;DHT22;68680;50.764;6.120;2023-09-30T01:20:55;13.00;99.90
79049;DHT22;68680;50.764;6.120;2023-09-30T01:23:24;13.00;99.90
79049;DHT22;68680;50.764;6.120;2023-09-30T01:25:49;13.00;99.90
79049;DHT22;68680;50.764;6.120;2023-09-30T01:28:15;13.00;99.90
79049;DHT22;68680;50.764;6.120;2023-09-30T01:30:41;13.00;99.90
79049;DHT22;68680;50.764;6.120;2023-09-30T01:33:07;13.00;99.90
79049;DHT22;68680;50.764;6.120;2023-09-30T01:35:33;13.00;99.90
79049;DHT22;68680;50.764;6.120;2023-09-30T01:37:58;13.00;99.90
79049;DHT22;68680;50.764;6.120;2023-09-30T01:40:26;12.90;99.90
79049;DHT22;68680;50.764;6.120;2023-09-30T01:42:52;12.90;99.90
79049;DHT22;68680;50.764;6.120;2023-09-30T01:45:17;12.90;99.90
79049;DHT22;68680;50.764;6.120;2023-09-30T01:47:43;12.90;99.90
79049;DHT22;68680;50.764;6.120;2023-09-30T01:50:09;12.90;99.90
79049;DHT22;68680;50.764;6.120;2023-09-30T01:52:35;13.00;99.90
79049;DHT22;68680;50.764;6.120;2023-09-30T01:55:01;13.00;99.90
79049;DHT22;68680;50.764;6.120;2023-09-30T01:57:28;13.00;99.90
79049;DHT22;68680;50.764;6.120;2023-09-30T01:59:54;13.00;99.90
79049;DHT22;68680;50.764;6.120;2023-09-30T02:02:19;13.10;99.90
79049;DHT22;68680;50.764;6.120;2023-09-30T02:04:45;13.10;99.90
79049;DHT22;68680;50.764;6.120;2023-09-30T02:07:11;13.10;99.90
79049;DHT22;68680;50.764;6.120;2023-09-30T02:09:37;13.10;99.90
79049;DHT22;68680;50.764;6.120;2023-09-30T02:12:03;13.10;99.90
79049;DHT22;68680;50.764;6.120;2023-09-30T02:14:30;13.10;99.90
79049;DHT22;68680;50.764;6.120;2023-09-30T02:16:57;13.10;99.90
79049;DHT22;68680;50.764;6.120;2023-09-30T02:19:23;13.10;99.90
79049;DHT22;68680;50.764;6.120;2023-09-30T02:21:48;13.10;99.90
79049;DHT22;68680;50.764;6.120;2023-09-30T02:24:14;13.00;99.90
79049;DHT22;68680;50.764;6.120;2023-09-30T02:26:40;12.90;99.90
79049;DHT22;68680;50.764;6.120;2023-09-30T02:29:06;12.80;99.90
79049;DHT22;68680;50.764;6.120;2023-09-30T02:31:33;12.80;99.90
79049;DHT22;68680;50.764;6.120;2023-09-30T02:33:58;12.80;99.90
79049;DHT22;68680;50.764;6.120;2023-09-30T02:36:24;12.80;99.90
79049;DHT22;68680;50.764;6.120;2023-09-30T02:38:50;12.80;99.90
79049;DHT22;68680;50.764;6.120;2023-09-30T02:41:16;12.70;99.90
79049;DHT22;68680;50.764;6.120;2023-09-30T02:43:42;12.70;99.90
79049;DHT22;68680;50.764;6.120;2023-09-30T02:46:07;12.70;99.90
79049;DHT22;68680;50.764;6.120;2023-09-30T02:48:35;12.70;99.90
79049;DHT22;68680;50.764;6.120;2023-09-30T02:51:00;12.70;99.90
79049;DHT22;68680;50.764;6.120;2023-09-30T02:53:26;12.60;99.90
79049;DHT22;68680;50.764;6.120;2023-09-30T02:55:52;12.60;99.90
79049;DHT22;68680;50.764;6.120;2023-09-30T02:58:18;12.60;99.90
79049;DHT22;68680;50.764;6.120;2023-09-30T03:00:47;12.60;99.90
79049;DHT22;68680;50.764;6.120;2023-09-30T03:03:13;12.60;99.90
79049;DHT22;68680;50.764;6.120;2023-09-30T03:05:40;12.60;99.90
79049;DHT22;68680;50.764;6.120;2023-09-30T03:08:06;12.60;99.90
79049;DHT22;68680;50.764;6.120;2023-09-30T03:10:32;12.60;99.90
79049;DHT22;68680;50.764;6.120;2023-09-30T03:12:58;12.60;99.90
79049;DHT22;68680;50.764;6.120;2023-09-30T03:15:24;12.60;99.90
79049;DHT22;68680;50.764;6.120;2023-09-30T03:17:50;12.50;99.90
79049;DHT22;68680;50.764;6.120;2023-09-30T03:20:15;12.50;99.90
79049;DHT22;68680;50.764;6.120;2023-09-30T03:22:43;12.40;99.90
79049;DHT22;68680;50.764;6.120;2023-09-30T03:25:10;12.40;99.90
79049;DHT22;68680;50.764;6.120;2023-09-30T03:27:36;12.40;99.90
79049;DHT22;68680;50.764;6.120;2023-09-30T03:30:02;12.30;99.90
79049;DHT22;68680;50.764;6.120;2023-09-30T03:32:29;12.30;99.90
79049;DHT22;68680;50.764;6.120;2023-09-30T03:34:56;12.30;99.90
79049;DHT22;68680;50.764;6.120;2023-09-30T03:37:22;12.20;99.90
79049;DHT22;68680;50.764;6.120;2023-09-30T03:39:49;12.20;99.90
79049;DHT22;68680;50.764;6.120;2023-09-30T03:42:15;12.20;99.90
79049;DHT22;68680;50.764;6.120;2023-09-30T03:44:40;12.00;99.90
79049;DHT22;68680;50.764;6.120;2023-09-30T03:47:06;11.80;99.90
79049;DHT22;68680;50.764;6.120;2023-09-30T03:49:32;11.70;99.90
79049;DHT22;68680;50.764;6.120;2023-09-30T03:51:57;11.70;99.90
79049;DHT22;68680;50.764;6.120;2023-09-30T03:54:23;11.70;99.90
79049;DHT22;68680;50.764;6.120;2023-09-30T03:56:50;11.80;99.90
79049;DHT22;68680;50.764;6.120;2023-09-30T03:59:16;11.90;99.90
79049;DHT22;68680;50.764;6.120;2023-09-30T04:01:42;11.90;99.90
79049;DHT22;68680;50.764;6.120;2023-09-30T04:04:08;12.00;99.90
79049;DHT22;68680;50.764;6.120;2023-09-30T04:06:33;12.00;99.90
79049;DHT22;68680;50.764;6.120;2023-09-30T04:08:59;12.00;99.90
79049;DHT22;68680;50.764;6.120;2023-09-30T04:11:25;11.90;99.90
79049;DHT22;68680;50.764;6.120;2023-09-30T04:13:52;11.90;99.90
79049;DHT22;68680;50.764;6.120;2023-09-30T04:16:18;11.90;99.90
79049;DHT22;68680;50.764;6.120;2023-09-30T04:18:44;11.90;99.90
79049;DHT22;68680;50.764;6.120;2023-09-30T04:21:09;11.90;99.90
79049;DHT22;68680;50.764;6.120;2023-09-30T04:23:35;11.90;99.90
79049;DHT22;68680;50.764;6.120;2023-09-30T04:26:01;11.90;99.90
79049;DHT22;68680;50.764;6.120;2023-09-30T04:28:27;11.90;99.90
79049;DHT22;68680;50.764;6.120;2023-09-30T04:30:54;11.90;99.90
79049;DHT22;68680;50.764;6.120;2023-09-30T04:33:20;11.90;99.90
79049;DHT22;68680;50.764;6.120;2023-09-30T04:35:46;11.90;99.90
79049;DHT22;68680;50.764;6.120;2023-09-30T04:38:12;11.90;99.90
79049;DHT22;68680;50.764;6.120;2023-09-30T04:40:38;11.90;99.90
79049;DHT22;68680;50.764;6.120;2023-09-30T04:43:04;11.90;99.90
79049;DHT22;68680;50.764;6.120;2023-09-30T04:45:30;11.90;99.90
79049;DHT22;68680;50.764;6.120;2023-09-30T04:47:57;11.90;99.90
79049;DHT22;68680;50.764;6.120;2023-09-30T04:50:22;11.90;99.90
79049;DHT22;68680;50.764;6.120;2023-09-30T04:52:48;11.80;99.90
79049;DHT22;68680;50.764;6.120;2023-09-30T04:55:15;11.80;99.90
79049;DHT22;68680;50.764;6.120;2023-09-30T04:57:41;11.80;99.90
79049;DHT22;68680;50.764;6.120;2023-09-30T05:00:08;11.80;99.90
79049;DHT22;68680;50.764;6.120;2023-09-30T05:02:35;11.80;99.90
79049;DHT22;68680;50.764;6.120;2023-09-30T05:05:02;11.80;99.90
79049;DHT22;68680;50.764;6.120;2023-09-30T05:07:28;11.80;99.90
79049;DHT22;68680;50.764;6.120;2023-09-30T05:09:54;11.70;99.90
79049;DHT22;68680;50.764;6.120;2023-09-30T05:12:19;11.70;99.90
79049;DHT22;68680;50.764;6.120;2023-09-30T05:14:45;11.70;99.90
79049;DHT22;68680;50.764;6.120;2023-09-30T05:17:11;11.60;99.90
79049;DHT22;68680;50.764;6.120;2023-09-30T05:19:37;11.50;99.90
79049;DHT22;68680;50.764;6.120;2023-09-30T05:22:04;11.50;99.90
79049;DHT22;68680;50.764;6.120;2023-09-30T05:24:30;11.40;99.90
79049;DHT22;68680;50.764;6.120;2023-09-30T05:26:56;11.50;99.90
79049;DHT22;68680;50.764;6.120;2023-09-30T05:29:22;11.50;99.90
79049;DHT22;68680;50.764;6.120;2023-09-30T05:31:48;11.50;99.90
79049;DHT22;68680;50.764;6.120;2023-09-30T05:34:14;11.50;99.90
79049;DHT22;68680;50.764;6.120;2023-09-30T05:36:40;11.50;99.90
79049;DHT22;68680;50.764;6.120;2023-09-30T05:39:07;11.50;99.90
79049;DHT22;68680;50.764;6.120;2023-09-30T05:41:33;11.50;99.90
79049;DHT22;68680;50.764;6.120;2023-09-30T05:43:58;11.50;99.90
79049;DHT22;68680;50.764;6.120;2023-09-30T05:46:24;11.50;99.90
79049;DHT22;68680;50.764;6.120;2023-09-30T05:48:51;11.50;99.90
79049;DHT22;68680;50.764;6.120;2023-09-30T05:51:16;11.50;99.90
79049;DHT22;68680;50.764;6.120;2023-09-30T05:53:42;11.50;99.90
79049;DHT22;68680;50.764;6.120;2023-09-30T05:56:09;11.50;99.90
79049;DHT22;68680;50.764;6.120;2023-09-30T05:58:35;11.50;99.90
79049;DHT22;68680;50.764;6.120;2023-09-30T06:01:01;11.40;99.90
79049;DHT22;68680;50.764;6.120;2023-09-30T06:03:27;11.40;99.90
79049;DHT22;68680;50.764;6.120;2023-09-30T06:05:52;11.40;99.90
79049;DHT22;68680;50.764;6.120;2023-09-30T06:08:18;11.30;99.90
79049;DHT22;68680;50.764;6.120;2023-09-30T06:10:44;11.30;99.90
79049;DHT22;68680;50.764;6.120;2023-09-30T06:13:12;11.40;99.90
79049;DHT22;68680;50.764;6.120;2023-09-30T06:15:38;11.40;99.90
79049;DHT22;68680;50.764;6.120;2023-09-30T06:18:04;11.40;99.90
79049;DHT22;68680;50.764;6.120;2023-09-30T06:20:30;11.50;99.90
79049;DHT22;68680;50.764;6.120;2023-09-30T06:22:56;11.50;99.90
79049;DHT22;68680;50.764;6.120;2023-09-30T06:25:22;11.60;99.90
79049;DHT22;68680;50.764;6.120;2023-09-30T06:27:48;11.60;99.90
79049;DHT22;68680;50.764;6.120;2023-09-30T06:30:16;11.60;99.90
79049;DHT22;68680;50.764;6.120;2023-09-30T06:32:43;11.70;99.90
79049;DHT22;68680;50.764;6.120;2023-09-30T06:35:09;11.70;99.90
79049;DHT22;68680;50.764;6.120;2023-09-30T06:37:36;11.80;99.90
79049;DHT22;68680;50.764;6.120;2023-09-30T06:40:02;11.80;99.90
79049;DHT22;68680;50.764;6.120;2023-09-30T06:42:29;11.90;99.90
79049;DHT22;68680;50.764;6.120;2023-09-30T06:44:55;11.90;99.90
79049;DHT22;68680;50.764;6.120;2023-09-30T06:47:22;11.90;99.90
79049;DHT22;68680;50.764;6.120;2023-09-30T06:49:48;12.00;99.90
79049;DHT22;68680;50.764;6.120;2023-09-30T06:52:13;12.00;99.90
79049;DHT22;68680;50.764;6.120;2023-09-30T06:54:39;12.00;99.90
79049;DHT22;68680;50.764;6.120;2023-09-30T06:57:05;12.10;99.90
79049;DHT22;68680;50.764;6.120;2023-09-30T06:59:32;12.10;99.90
79049;DHT22;68680;50.764;6.120;2023-09-30T07:01:58;12.20;99.90
79049;DHT22;68680;50.764;6.120;2023-09-30T07:04:25;12.30;99.90
79049;DHT22;68680;50.764;6.120;2023-09-30T07:06:51;12.40;99.90
79049;DHT22;68680;50.764;6.120;2023-09-30T07:09:17;12.40;99.90
79049;DHT22;68680;50.764;6.120;2023-09-30T07:11:43;12.50;99.90
79049;DHT22;68680;50.764;6.120;2023-09-30T07:14:09;12.60;99.90
79049;DHT22;68680;50.764;6.120;2023-09-30T07:16:35;12.70;99.90
79049;DHT22;68680;50.764;6.120;2023-09-30T07:19:01;12.80;99.90
79049;DHT22;68680;50.764;6.120;2023-09-30T07:21:28;12.80;99.90
79049;DHT22;68680;50.764;6.120;2023-09-30T07:23:54;12.90;99.90
79049;DHT22;68680;50.764;6.120;2023-09-30T07:26:23;13.00;99.90
79049;DHT22;68680;50.764;6.120;2023-09-30T07:28:49;13.00;99.90
79049;DHT22;68680;50.764;6.120;2023-09-30T07:31:15;13.10;99.90
79049;DHT22;68680;50.764;6.120;2023-09-30T07:33:41;13.10;99.90
79049;DHT22;68680;50.764;6.120;2023-09-30T07:36:07;13.10;99.90
79049;DHT22;68680;50.764;6.120;2023-09-30T07:38:34;13.20;99.90
79049;DHT22;68680;50.764;6.120;2023-09-30T07:41:00;13.10;99.90
79049;DHT22;68680;50.764;6.120;2023-09-30T07:43:28;13.10;99.90
79049;DHT22;68680;50.764;6.120;2023-09-30T07:45:53;13.10;99.90
79049;DHT22;68680;50.764;6.120;2023-09-30T07:48:19;13.10;99.90
79049;DHT22;68680;50.764;6.120;2023-09-30T07:50:45;13.20;99.90
79049;DHT22;68680;50.764;6.120;2023-09-30T07:53:11;13.20;99.90
79049;DHT22;68680;50.764;6.120;2023-09-30T07:55:38;13.30;99.90
79049;DHT22;68680;50.764;6.120;2023-09-30T07:58:04;13.40;99.90
79049;DHT22;68680;50.764;6.120;2023-09-30T08:00:29;13.50;99.90
79049;DHT22;68680;50.764;6.120;2023-09-30T08:02:55;13.50;99.90
79049;DHT22;68680;50.764;6.120;2023-09-30T08:05:21;13.60;99.90
79049;DHT22;68680;50.764;6.120;2023-09-30T08:07:47;13.80;99.90
79049;DHT22;68680;50.764;6.120;2023-09-30T08:10:13;13.90;99.90
79049;DHT22;68680;50.764;6.120;2023-09-30T08:12:40;14.00;99.90
79049;DHT22;68680;50.764;6.120;2023-09-30T08:15:07;14.10;99.90
79049;DHT22;68680;50.764;6.120;2023-09-30T08:17:33;14.10;99.90
79049;DHT22;68680;50.764;6.120;2023-09-30T08:19:59;14.20;99.90
79049;DHT22;68680;50.764;6.120;2023-09-30T08:22:25;14.30;99.90
79049;DHT22;68680;50.764;6.120;2023-09-30T08:24:51;14.40;99.90
79049;DHT22;68680;50.764;6.120;2023-09-30T08:27:16;14.50;99.90
79049;DHT22;68680;50.764;6.120;2023-09-30T08:29:43;14.50;99.90
79049;DHT22;68680;50.764;6.120;2023-09-30T08:32:10;14.60;99.90
79049;DHT22;68680;50.764;6.120;2023-09-30T08:34:36;14.60;99.90
79049;DHT22;68680;50.764;6.120;2023-09-30T08:37:01;14.70;99.90
79049;DHT22;68680;50.764;6.120;2023-09-30T08:39:27;14.80;99.90
79049;DHT22;68680;50.764;6.120;2023-09-30T08:41:55;14.80;99.90
79049;DHT22;68680;50.764;6.120;2023-09-30T08:44:21;14.90;99.90
79049;DHT22;68680;50.764;6.120;2023-09-30T08:46:49;15.00;99.90
79049;DHT22;68680;50.764;6.120;2023-09-30T08:49:16;15.10;99.90
79049;DHT22;68680;50.764;6.120;2023-09-30T08:51:44;15.20;99.90
79049;DHT22;68680;50.764;6.120;2023-09-30T08:54:11;15.20;99.90
79049;DHT22;68680;50.764;6.120;2023-09-30T08:56:39;15.20;99.90
79049;DHT22;68680;50.764;6.120;2023-09-30T08:59:11;15.30;99.90
79049;DHT22;68680;50.764;6.120;2023-09-30T09:01:37;15.40;99.90
79049;DHT22;68680;50.764;6.120;2023-09-30T09:04:07;15.50;99.90
79049;DHT22;68680;50.764;6.120;2023-09-30T09:06:33;15.50;99.90
79049;DHT22;68680;50.764;6.120;2023-09-30T09:09:13;15.50;99.90
79049;DHT22;68680;50.764;6.120;2023-09-30T09:11:39;15.60;99.90
79049;DHT22;68680;50.764;6.120;2023-09-30T09:14:05;15.70;99.90
79049;DHT22;68680;50.764;6.120;2023-09-30T09:16:30;15.70;99.90
79049;DHT22;68680;50.764;6.120;2023-09-30T09:18:56;15.80;99.90
79049;DHT22;68680;50.764;6.120;2023-09-30T09:21:23;15.80;98.00
79049;DHT22;68680;50.764;6.120;2023-09-30T09:23:50;15.90;99.90
79049;DHT22;68680;50.764;6.120;2023-09-30T09:26:24;16.00;98.30
79049;DHT22;68680;50.764;6.120;2023-09-30T09:28:56;16.10;97.00
79049;DHT22;68680;50.764;6.120;2023-09-30T09:31:27;16.20;97.00
79049;DHT22;68680;50.764;6.120;2023-09-30T09:33:54;16.30;98.70
79049;DHT22;68680;50.764;6.120;2023-09-30T09:36:20;16.40;99.60
79049;DHT22;68680;50.764;6.120;2023-09-30T09:38:48;16.50;97.80
79049;DHT22;68680;50.764;6.120;2023-09-30T09:41:15;16.50;96.80
79049;DHT22;68680;50.764;6.120;2023-09-30T09:43:42;16.60;94.10
79049;DHT22;68680;50.764;6.120;2023-09-30T09:46:09;16.60;94.70
79049;DHT22;68680;50.764;6.120;2023-09-30T09:48:36;16.70;95.30
79049;DHT22;68680;50.764;6.120;2023-09-30T09:51:02;16.70;95.00
79049;DHT22;68680;50.764;6.120;2023-09-30T09:53:30;16.70;94.90
79049;DHT22;68680;50.764;6.120;2023-09-30T09:56:00;16.70;93.80
79049;DHT22;68680;50.764;6.120;2023-09-30T09:58:27;16.80;94.20
79049;DHT22;68680;50.764;6.120;2023-09-30T10:00:57;16.90;94.50
79049;DHT22;68680;50.764;6.120;2023-09-30T10:03:24;17.00;94.90
79049;DHT22;68680;50.764;6.120;2023-09-30T10:05:50;17.00;94.30
79049;DHT22;68680;50.764;6.120;2023-09-30T10:08:32;17.10;94.10
79049;DHT22;68680;50.764;6.120;2023-09-30T10:11:02;17.30;93.00
79049;DHT22;68680;50.764;6.120;2023-09-30T10:13:51;17.40;92.70
79049;DHT22;68680;50.764;6.120;2023-09-30T10:16:48;17.40;92.10
79049;DHT22;68680;50.764;6.120;2023-09-30T10:19:15;17.40;90.50
79049;DHT22;68680;50.764;6.120;2023-09-30T10:24:46;17.50;91.30
79049;DHT22;68680;50.764;6.120;2023-09-30T10:27:33;17.70;91.60
79049;DHT22;68680;50.764;6.120;2023-09-30T10:30:14;17.80;89.40
79049;DHT22;68680;50.764;6.120;2023-09-30T10:33:08;17.80;87.50
79049;DHT22;68680;50.764;6.120;2023-09-30T10:35:45;17.80;89.80
79049;DHT22;68680;50.764;6.120;2023-09-30T10:38:38;17.80;88.40
79049;DHT22;68680;50.764;6.120;2023-09-30T10:41:06;17.80;90.00
79049;DHT22;68680;50.764;6.120;2023-09-30T10:43:41;17.80;89.70
79049;DHT22;68680;50.764;6.120;2023-09-30T10:46:32;17.70;89.30
79049;DHT22;68680;50.764;6.120;2023-09-30T10:49:15;17.40;89.90
79049;DHT22;68680;50.764;6.120;2023-09-30T10:51:56;17.30;91.40
79049;DHT22;68680;50.764;6.120;2023-09-30T10:54:24;17.30;91.60
79049;DHT22;68680;50.764;6.120;2023-09-30T10:57:03;17.30;91.80
79049;DHT22;68680;50.764;6.120;2023-09-30T10:59:31;17.20;90.60
79049;DHT22;68680;50.764;6.120;2023-09-30T11:01:57;17.10;91.30
79049;DHT22;68680;50.764;6.120;2023-09-30T11:04:23;17.00;91.30
79049;DHT22;68680;50.764;6.120;2023-09-30T11:06:49;17.00;91.30
79049;DHT22;68680;50.764;6.120;2023-09-30T11:09:16;17.10;90.90
79049;DHT22;68680;50.764;6.120;2023-09-30T11:11:45;17.40;88.10
79049;DHT22;68680;50.764;6.120;2023-09-30T11:14:22;17.60;85.20
79049;DHT22;68680;50.764;6.120;2023-09-30T11:16:52;17.80;86.10
79049;DHT22;68680;50.764;6.120;2023-09-30T11:19:19;18.00;87.00
79049;DHT22;68680;50.764;6.120;2023-09-30T11:21:46;18.10;86.10
79049;DHT22;68680;50.764;6.120;2023-09-30T11:24:14;18.20;86.80
79049;DHT22;68680;50.764;6.120;2023-09-30T11:26:40;18.10;86.40
79049;DHT22;68680;50.764;6.120;2023-09-30T11:29:06;17.90;88.60
79049;DHT22;68680;50.764;6.120;2023-09-30T11:31:34;17.90;90.10
79049;DHT22;68680;50.764;6.120;2023-09-30T11:34:04;17.90;90.00
79049;DHT22;68680;50.764;6.120;2023-09-30T11:36:30;17.90;89.80
79049;DHT22;68680;50.764;6.120;2023-09-30T11:38:56;17.90;86.00
79049;DHT22;68680;50.764;6.120;2023-09-30T11:41:31;17.90;87.00
79049;DHT22;68680;50.764;6.120;2023-09-30T11:43:59;17.80;88.00
79049;DHT22;68680;50.764;6.120;2023-09-30T11:46:26;17.70;88.20
79049;DHT22;68680;50.764;6.120;2023-09-30T11:48:57;17.70;84.60
79049;DHT22;68680;50.764;6.120;2023-09-30T11:51:25;17.80;85.50
79049;DHT22;68680;50.764;6.120;2023-09-30T11:53:51;18.00;82.60
79049;DHT22;68680;50.764;6.120;2023-09-30T11:56:17;18.20;83.50
79049;DHT22;68680;50.764;6.120;2023-09-30T11:58:43;18.30;86.00
79049;DHT22;68680;50.764;6.120;2023-09-30T12:01:08;18.50;82.10
79049;DHT22;68680;50.764;6.120;2023-09-30T12:03:34;18.40;80.20
79049;DHT22;68680;50.764;6.120;2023-09-30T12:06:00;18.50;83.70
79049;DHT22;68680;50.764;6.120;2023-09-30T12:08:27;18.50;83.10
79049;DHT22;68680;50.764;6.120;2023-09-30T12:10:53;18.40;80.90
79049;DHT22;68680;50.764;6.120;2023-09-30T12:13:19;18.30;82.30
79049;DHT22;68680;50.764;6.120;2023-09-30T12:15:45;18.40;81.40
79049;DHT22;68680;50.764;6.120;2023-09-30T12:18:11;18.40;79.60
79049;DHT22;68680;50.764;6.120;2023-09-30T12:20:37;18.40;83.90
79049;DHT22;68680;50.764;6.120;2023-09-30T12:23:03;18.40;82.40
79049;DHT22;68680;50.764;6.120;2023-09-30T12:25:30;18.50;84.20
79049;DHT22;68680;50.764;6.120;2023-09-30T12:27:55;18.60;81.50
79049;DHT22;68680;50.764;6.120;2023-09-30T12:30:21;18.70;78.50
79049;DHT22;68680;50.764;6.120;2023-09-30T12:32:47;18.80;78.70
79049;DHT22;68680;50.764;6.120;2023-09-30T12:35:13;18.90;77.40
79049;DHT22;68680;50.764;6.120;2023-09-30T12:37:39;18.90;75.70
79049;DHT22;68680;50.764;6.120;2023-09-30T12:40:05;18.90;76.30
79049;DHT22;68680;50.764;6.120;2023-09-30T12:42:33;18.90;75.70
79049;DHT22;68680;50.764;6.120;2023-09-30T12:44:59;19.00;75.60
79049;DHT22;68680;50.764;6.120;2023-09-30T12:47:25;19.00;74.80
79049;DHT22;68680;50.764;6.120;2023-09-30T12:49:52;19.00;75.70
79049;DHT22;68680;50.764;6.120;2023-09-30T12:52:17;19.10;77.00
79049;DHT22;68680;50.764;6.120;2023-09-30T12:54:43;19.10;74.50
79049;DHT22;68680;50.764;6.120;2023-09-30T12:57:09;19.10;74.80
79049;DHT22;68680;50.764;6.120;2023-09-30T12:59:36;19.20;76.20
79049;DHT22;68680;50.764;6.120;2023-09-30T13:02:02;19.30;74.60
79049;DHT22;68680;50.764;6.120;2023-09-30T13:04:28;19.30;75.10
79049;DHT22;68680;50.764;6.120;2023-09-30T13:06:53;19.30;74.80
79049;DHT22;68680;50.764;6.120;2023-09-30T13:09:19;19.10;74.60
79049;DHT22;68680;50.764;6.120;2023-09-30T13:11:45;19.10;75.20
79049;DHT22;68680;50.764;6.120;2023-09-30T13:14:11;19.00;73.40
79049;DHT22;68680;50.764;6.120;2023-09-30T13:16:38;19.00;75.00
79049;DHT22;68680;50.764;6.120;2023-09-30T13:19:04;19.20;70.80
79049;DHT22;68680;50.764;6.120;2023-09-30T13:21:30;19.40;71.90
79049;DHT22;68680;50.764;6.120;2023-09-30T13:23:56;19.40;68.10
79049;DHT22;68680;50.764;6.120;2023-09-30T13:26:21;19.50;69.90
79049;DHT22;68680;50.764;6.120;2023-09-30T13:28:47;19.60;68.10
79049;DHT22;68680;50.764;6.120;2023-09-30T13:31:13;19.60;70.00
79049;DHT22;68680;50.764;6.120;2023-09-30T13:33:40;19.50;69.80
79049;DHT22;68680;50.764;6.120;2023-09-30T13:36:06;19.90;70.40
79049;DHT22;68680;50.764;6.120;2023-09-30T13:38:32;21.20;67.10
79049;DHT22;68680;50.764;6.120;2023-09-30T13:40:57;22.00;66.00
79049;DHT22;68680;50.764;6.120;2023-09-30T13:43:23;22.70;60.80
79049;DHT22;68680;50.764;6.120;2023-09-30T13:45:49;23.60;58.60
79049;DHT22;68680;50.764;6.120;2023-09-30T13:48:15;23.40;54.70
79049;DHT22;68680;50.764;6.120;2023-09-30T13:50:42;22.90;59.20
79049;DHT22;68680;50.764;6.120;2023-09-30T13:53:08;22.90;59.10
79049;DHT22;68680;50.764;6.120;2023-09-30T13:55:37;22.80;58.30
79049;DHT22;68680;50.764;6.120;2023-09-30T13:58:03;22.30;60.60
79049;DHT22;68680;50.764;6.120;2023-09-30T14:00:29;22.00;57.90
79049;DHT22;68680;50.764;6.120;2023-09-30T14:02:55;22.10;60.20
79049;DHT22;68680;50.764;6.120;2023-09-30T14:05:21;22.20;60.20
79049;DHT22;68680;50.764;6.120;2023-09-30T14:07:48;22.30;59.70
79049;DHT22;68680;50.764;6.120;2023-09-30T14:10:13;21.80;61.90
79049;DHT22;68680;50.764;6.120;2023-09-30T14:12:39;21.50;64.00
79049;DHT22;68680;50.764;6.120;2023-09-30T14:15:07;21.40;62.90
79049;DHT22;68680;50.764;6.120;2023-09-30T14:17:33;21.00;63.50
79049;DHT22;68680;50.764;6.120;2023-09-30T14:19:59;20.70;65.30
79049;DHT22;68680;50.764;6.120;2023-09-30T14:22:25;20.40;66.00
79049;DHT22;68680;50.764;6.120;2023-09-30T14:24:52;20.30;68.10
79049;DHT22;68680;50.764;6.120;2023-09-30T14:27:17;20.30;69.30
79049;DHT22;68680;50.764;6.120;2023-09-30T14:29:43;20.00;69.90
79049;DHT22;68680;50.764;6.120;2023-09-30T14:32:09;20.00;67.00
79049;DHT22;68680;50.764;6.120;2023-09-30T14:34:35;19.70;66.50
79049;DHT22;68680;50.764;6.120;2023-09-30T14:37:01;19.60;70.40
79049;DHT22;68680;50.764;6.120;2023-09-30T14:39:26;19.50;71.20
79049;DHT22;68680;50.764;6.120;2023-09-30T14:41:54;19.50;72.80
79049;DHT22;68680;50.764;6.120;2023-09-30T14:44:19;19.40;71.10
79049;DHT22;68680;50.764;6.120;2023-09-30T14:46:45;19.30;72.10
79049;DHT22;68680;50.764;6.120;2023-09-30T14:49:11;19.30;73.80
79049;DHT22;68680;50.764;6.120;2023-09-30T14:51:37;19.30;72.70
79049;DHT22;68680;50.764;6.120;2023-09-30T14:54:02;19.20;73.90
79049;DHT22;68680;50.764;6.120;2023-09-30T14:56:29;19.20;72.30
79049;DHT22;68680;50.764;6.120;2023-09-30T14:58:56;19.10;71.30
79049;DHT22;68680;50.764;6.120;2023-09-30T15:01:21;19.20;71.80
79049;DHT22;68680;50.764;6.120;2023-09-30T15:03:47;19.10;73.10
79049;DHT22;68680;50.764;6.120;2023-09-30T15:06:13;19.10;73.80
79049;DHT22;68680;50.764;6.120;2023-09-30T15:08:39;19.00;75.50
79049;DHT22;68680;50.764;6.120;2023-09-30T15:11:05;18.90;74.40
79049;DHT22;68680;50.764;6.120;2023-09-30T15:13:31;18.90;74.50
79049;DHT22;68680;50.764;6.120;2023-09-30T15:15:58;18.90;75.10
79049;DHT22;68680;50.764;6.120;2023-09-30T15:18:24;18.90;74.40
79049;DHT22;68680;50.764;6.120;2023-09-30T15:20:50;18.80;73.70
79049;DHT22;68680;50.764;6.120;2023-09-30T15:23:16;18.80;73.70
79049;DHT22;68680;50.764;6.120;2023-09-30T15:25:42;18.80;75.60
79049;DHT22;68680;50.764;6.120;2023-09-30T15:28:09;18.80;75.40
79049;DHT22;68680;50.764;6.120;2023-09-30T15:30:35;18.80;77.30